WARNING - Change wsUserSettings.php: $SITE["topfolder"] from : public_html./ to: ./
Iedere zaterdag na 11 uur op radio zuidwest.

Onweer radar Meer informatie blitzortung!


Regen radar Meer informatie rain snow radar


Bezoek onze andere website:

Template documentation
and downloads


U vindt ons ook hier:

Het Weer Aktueel

UK Metoffice

European Weather Network

WeatherCloud

Weather Underground

Austria Weather Network

AWEKAS

Citizen Weather Observer Program (CWOP)

HAMweather, WeatherForYou, PWS Weather

Wetterpage 24

Roosendaal nieuws

VWKWEB

RadioZuidWestFM



METAR rapporten vliegvelden

   
EHWO - Bergen op Zoom
Gewijzigd: 16-05-2022 11:29
Onweer, Grotendeels bewolkt  
Onweer, Grotendeels bewolkt  
   Wind: WZW 14.8 km/h
Wind: WZW 14.8 km/h
Temperatuur: 18°C
Dauwpunt: 16°C
Vochtigheid: 88%
Barometer: 1014 hPa
Bewolking: Grotendeels bewolkt
Zicht: meer dan 10 km
Bewolking: Licht bewolkt 1400 ft,
Gedeeltelijk bewolkt 1500 ft,
Grotendeels bewolkt 6400 ft
EHWO 160929Z AUTO 24008KT 230V290 9999 TS FEW014 SCT015CB BKN064 18/16 Q1014 WHT
EHWO - Woensdrecht
Gewijzigd: 16-05-2022 11:29
Onweer, Grotendeels bewolkt  
Onweer, Grotendeels bewolkt  
   Wind: WZW 14.8 km/h
Wind: WZW 14.8 km/h
Temperatuur: 18°C
Dauwpunt: 16°C
Vochtigheid: 88%
Barometer: 1014 hPa
Bewolking: Grotendeels bewolkt
Zicht: meer dan 10 km
Bewolking: Licht bewolkt 1400 ft,
Gedeeltelijk bewolkt 1500 ft,
Grotendeels bewolkt 6400 ft
EHWO 160929Z AUTO 24008KT 230V290 9999 TS FEW014 SCT015CB BKN064 18/16 Q1014 WHT
EHWO - Steenbergen
Gewijzigd: 16-05-2022 11:29
Onweer, Grotendeels bewolkt  
Onweer, Grotendeels bewolkt  
   Wind: WZW 14.8 km/h
Wind: WZW 14.8 km/h
Temperatuur: 18°C
Dauwpunt: 16°C
Vochtigheid: 88%
Barometer: 1014 hPa
Bewolking: Grotendeels bewolkt
Zicht: meer dan 10 km
Bewolking: Licht bewolkt 1400 ft,
Gedeeltelijk bewolkt 1500 ft,
Grotendeels bewolkt 6400 ft
EHWO 160929Z AUTO 24008KT 230V290 9999 TS FEW014 SCT015CB BKN064 18/16 Q1014 WHT
EHWO - Oud-Gastel
Gewijzigd: 16-05-2022 11:29
Onweer, Grotendeels bewolkt  
Onweer, Grotendeels bewolkt  
   Wind: WZW 14.8 km/h
Wind: WZW 14.8 km/h
Temperatuur: 18°C
Dauwpunt: 16°C
Vochtigheid: 88%
Barometer: 1014 hPa
Bewolking: Grotendeels bewolkt
Zicht: meer dan 10 km
Bewolking: Licht bewolkt 1400 ft,
Gedeeltelijk bewolkt 1500 ft,
Grotendeels bewolkt 6400 ft
EHWO 160929Z AUTO 24008KT 230V290 9999 TS FEW014 SCT015CB BKN064 18/16 Q1014 WHT
EHWO - Oudenbosch
Gewijzigd: 16-05-2022 11:29
Onweer, Grotendeels bewolkt  
Onweer, Grotendeels bewolkt  
   Wind: WZW 14.8 km/h
Wind: WZW 14.8 km/h
Temperatuur: 18°C
Dauwpunt: 16°C
Vochtigheid: 88%
Barometer: 1014 hPa
Bewolking: Grotendeels bewolkt
Zicht: meer dan 10 km
Bewolking: Licht bewolkt 1400 ft,
Gedeeltelijk bewolkt 1500 ft,
Grotendeels bewolkt 6400 ft
EHWO 160929Z AUTO 24008KT 230V290 9999 TS FEW014 SCT015CB BKN064 18/16 Q1014 WHT
EHWO - Rucphen
Gewijzigd: 16-05-2022 11:29
Onweer, Grotendeels bewolkt  
Onweer, Grotendeels bewolkt  
   Wind: WZW 14.8 km/h
Wind: WZW 14.8 km/h
Temperatuur: 18°C
Dauwpunt: 16°C
Vochtigheid: 88%
Barometer: 1014 hPa
Bewolking: Grotendeels bewolkt
Zicht: meer dan 10 km
Bewolking: Licht bewolkt 1400 ft,
Gedeeltelijk bewolkt 1500 ft,
Grotendeels bewolkt 6400 ft
EHWO 160929Z AUTO 24008KT 230V290 9999 TS FEW014 SCT015CB BKN064 18/16 Q1014 WHT
EHWO - Bergen op Zoom
Gewijzigd: 16-05-2022 11:29
Onweer, Grotendeels bewolkt  
Onweer, Grotendeels bewolkt  
   Wind: WZW 14.8 km/h
Wind: WZW 14.8 km/h
Temperatuur: 18°C
Dauwpunt: 16°C
Vochtigheid: 88%
Barometer: 1014 hPa
Bewolking: Grotendeels bewolkt
Zicht: meer dan 10 km
Bewolking: Licht bewolkt 1400 ft,
Gedeeltelijk bewolkt 1500 ft,
Grotendeels bewolkt 6400 ft
EHWO 160929Z AUTO 24008KT 230V290 9999 TS FEW014 SCT015CB BKN064 18/16 Q1014 WHT
EHWO - Fijnaart
Gewijzigd: 16-05-2022 11:29
Onweer, Grotendeels bewolkt  
Onweer, Grotendeels bewolkt  
   Wind: WZW 14.8 km/h
Wind: WZW 14.8 km/h
Temperatuur: 18°C
Dauwpunt: 16°C
Vochtigheid: 88%
Barometer: 1014 hPa
Bewolking: Grotendeels bewolkt
Zicht: meer dan 10 km
Bewolking: Licht bewolkt 1400 ft,
Gedeeltelijk bewolkt 1500 ft,
Grotendeels bewolkt 6400 ft
EHWO 160929Z AUTO 24008KT 230V290 9999 TS FEW014 SCT015CB BKN064 18/16 Q1014 WHT
EHWO - Ossendrecht
Gewijzigd: 16-05-2022 11:29
Onweer, Grotendeels bewolkt  
Onweer, Grotendeels bewolkt  
   Wind: WZW 14.8 km/h
Wind: WZW 14.8 km/h
Temperatuur: 18°C
Dauwpunt: 16°C
Vochtigheid: 88%
Barometer: 1014 hPa
Bewolking: Grotendeels bewolkt
Zicht: meer dan 10 km
Bewolking: Licht bewolkt 1400 ft,
Gedeeltelijk bewolkt 1500 ft,
Grotendeels bewolkt 6400 ft
EHWO 160929Z AUTO 24008KT 230V290 9999 TS FEW014 SCT015CB BKN064 18/16 Q1014 WHT

Script ontwikkeld door  Saratoga-weather.org Aangepast voor de template door  Weerstation Leuven

Apparatuur in gebruik:

Weerstation
Davis VP2

Weerprogramma
Meteobridge

Weercomputer
Shuttle

Webleverancier
WeservIT

Davis VP2

Meteobridge

Shuttle

WeservIT